Time;durP1;ratioP1;P1;durP2;ratioP2;P2;SDS_P1;SDS_P2;PMS_P1;PMS_P2;Temp;Humidity;BMP_temperature;BMP_pressure;BME280_temperature;BME280_humidity;BME280_pressure;Samples;Min_cycle;Max_cycle;Signal;HPM_P1;HPM_P2
2022/05/19 00:01:33;;;;;;;12.23;4.50;;;;;;;8.20;71.91;100845.09;5116784;27;20504;-77
2022/05/19 00:04:02;;;;;;;13.48;4.82;;;;;;;8.27;71.73;100845.78;5116915;27;20047;-78
2022/05/19 00:06:29;;;;;;;11.07;4.70;;;;;;;8.10;72.40;100848.97;5116672;28;20046;-78
2022/05/19 00:08:57;;;;;;;10.07;4.35;;;;;;;8.18;72.20;100846.97;5116348;28;20048;-76
2022/05/19 00:11:28;;;;;;;13.30;4.60;;;;;;;8.08;71.45;100846.34;5116491;28;20507;-77
2022/05/19 00:13:56;;;;;;;11.25;4.18;;;;;;;7.94;72.58;100856.63;5117423;27;20050;-77
2022/05/19 00:16:24;;;;;;;12.10;4.10;;;;;;;7.89;73.63;100855.88;5116452;28;20073;-78
2022/05/19 00:18:51;;;;;;;13.77;5.00;;;;;;;8.12;72.21;100857.88;5116238;28;20039;-77
2022/05/19 00:21:21;;;;;;;9.85;3.92;;;;;;;7.99;72.36;100857.41;5116366;27;20043;-77
2022/05/19 00:23:49;;;;;;;8.55;3.90;;;;;;;7.89;72.82;100864.84;5116042;28;20047;-76
2022/05/19 00:26:16;;;;;;;10.20;3.65;;;;;;;7.81;73.24;100859.66;5116371;28;20054;-77
2022/05/19 00:28:44;;;;;;;11.90;3.92;;;;;;;7.73;74.11;100864.41;5116387;27;20400;-76
2022/05/19 00:31:12;;;;;;;8.05;3.67;;;;;;;7.83;73.42;100857.81;5115649;27;20092;-78
2022/05/19 00:33:39;;;;;;;10.23;3.80;;;;;;;7.88;72.88;100860.38;5116347;27;20043;-78
2022/05/19 00:36:08;;;;;;;10.63;3.58;;;;;;;7.69;73.61;100857.34;5116228;27;20443;-76
2022/05/19 00:38:38;;;;;;;9.38;3.85;;;;;;;7.73;73.17;100855.44;5115769;27;20047;-77
2022/05/19 00:41:06;;;;;;;9.80;3.75;;;;;;;7.68;73.73;100860.97;5115894;27;20047;-77
2022/05/19 00:43:36;;;;;;;9.70;3.88;;;;;;;7.61;74.14;100859.38;5115862;27;20039;-77
2022/05/19 00:46:07;;;;;;;9.43;4.28;;;;;;;7.43;75.06;100866.13;5115708;28;20049;-77
2022/05/19 00:48:42;;;;;;;9.20;3.72;;;;;;;7.46;74.93;100860.66;5117085;28;20055;-77
2022/05/19 00:51:11;;;;;;;9.98;3.90;;;;;;;7.59;73.86;100858.53;5116558;28;20059;-76
2022/05/19 00:53:42;;;;;;;9.93;4.15;;;;;;;7.52;74.36;100861.38;5115691;28;20047;-76
2022/05/19 00:56:12;;;;;;;9.75;4.07;;;;;;;7.44;74.68;100863.38;5116105;28;20051;-77
2022/05/19 00:58:44;;;;;;;9.43;3.80;;;;;;;7.36;74.69;100857.34;5116521;28;20070;-76
2022/05/19 01:01:12;;;;;;;10.15;4.00;;;;;;;7.51;73.99;100862.28;5116744;28;20046;-77
2022/05/19 01:03:43;;;;;;;10.10;4.30;;;;;;;7.24;75.00;100861.22;5114323;28;20043;-77
2022/05/19 01:06:15;;;;;;;12.38;4.30;;;;;;;7.37;74.76;100864.47;5116158;28;20412;-77
2022/05/19 01:08:46;;;;;;;12.65;4.05;;;;;;;7.45;74.32;100866.97;5115854;28;20051;-76
2022/05/19 01:11:16;;;;;;;12.50;4.10;;;;;;;7.36;74.48;100855.56;5116561;28;20404;-77
2022/05/19 01:13:44;;;;;;;10.52;4.20;;;;;;;7.34;74.53;100860.09;5115598;28;20051;-78
2022/05/19 01:16:11;;;;;;;12.43;4.30;;;;;;;7.33;74.74;100857.41;5115377;28;20043;-78
2022/05/19 01:18:40;;;;;;;9.15;4.13;;;;;;;7.26;75.06;100854.00;5115394;27;20063;-76
2022/05/19 01:21:09;;;;;;;9.77;4.18;;;;;;;7.34;75.00;100851.13;5115348;27;20446;-77
2022/05/19 01:23:50;;;;;;;12.32;4.88;;;;;;;7.25;75.13;100850.44;5114856;28;20043;-78
2022/05/19 01:26:24;;;;;;;14.43;4.40;;;;;;;7.19;75.59;100864.06;5115805;27;20047;-78
2022/05/19 01:28:53;;;;;;;13.57;4.45;;;;;;;7.21;76.04;100851.47;5114008;27;20044;-77
2022/05/19 01:31:32;;;;;;;14.02;4.70;;;;;;;7.29;75.95;100853.94;5115092;27;20043;-76
2022/05/19 01:34:00;;;;;;;13.85;4.80;;;;;;;7.22;76.48;100861.28;5115335;27;20043;-77
2022/05/19 01:36:28;;;;;;;11.32;5.00;;;;;;;7.00;76.93;100860.97;5114827;27;20377;-77
2022/05/19 01:39:08;;;;;;;10.38;4.60;;;;;;;7.18;75.78;100856.91;5115031;27;20065;-77
2022/05/19 01:41:46;;;;;;;11.43;4.70;;;;;;;7.21;75.80;100855.94;5114277;27;20047;-77
2022/05/19 01:44:39;;;;;;;10.98;4.40;;;;;;;7.20;76.79;100860.44;5115161;27;20067;-77
2022/05/19 01:47:11;;;;;;;11.23;4.72;;;;;;;7.27;75.82;100860.28;5114902;28;20047;-77
2022/05/19 01:49:42;;;;;;;11.02;4.82;;;;;;;7.10;76.32;100856.22;5116744;27;20055;-77
2022/05/19 01:52:14;;;;;;;11.88;4.82;;;;;;;7.05;76.42;100866.19;5114868;27;20508;-77
2022/05/19 01:54:47;;;;;;;10.70;4.35;;;;;;;7.02;76.71;100868.97;5115598;27;20439;-77
2022/05/19 01:57:20;;;;;;;9.93;4.50;;;;;;;6.97;77.27;100863.72;5115591;27;20046;-76
2022/05/19 01:59:56;;;;;;;14.27;4.75;;;;;;;6.89;77.20;100877.34;5115996;27;20479;-76
2022/05/19 02:02:27;;;;;;;10.98;4.80;;;;;;;6.92;77.40;100866.50;5115924;28;20039;-78
2022/05/19 02:04:58;;;;;;;10.88;4.88;;;;;;;6.98;77.32;100872.66;5114357;27;20043;-77
2022/05/19 02:07:26;;;;;;;14.93;5.32;;;;;;;6.88;77.25;100867.50;5114925;27;20504;-77
2022/05/19 02:09:56;;;;;;;12.98;5.25;;;;;;;7.04;76.59;100870.69;5114455;27;20044;-76
2022/05/19 02:12:24;;;;;;;12.18;4.88;;;;;;;7.00;76.30;100871.69;5114625;28;20051;-77
2022/05/19 02:14:57;;;;;;;13.75;4.72;;;;;;;6.99;76.88;100869.94;5114300;27;20047;-77
2022/05/19 02:17:25;;;;;;;15.48;5.18;;;;;;;6.99;76.25;100869.94;5114729;27;20047;-77
2022/05/19 02:19:55;;;;;;;10.85;4.97;;;;;;;6.85;77.65;100883.69;5113331;27;20040;-77
2022/05/19 02:22:27;;;;;;;9.45;4.35;;;;;;;6.79;77.77;100875.81;5114124;27;20048;-77
2022/05/19 02:25:03;;;;;;;15.55;5.28;;;;;;;6.71;77.89;100878.66;5114116;27;20044;-77
2022/05/19 02:27:34;;;;;;;13.07;4.70;;;;;;;6.81;78.21;100873.97;5114447;27;20044;-77
2022/05/19 02:30:06;;;;;;;13.70;5.15;;;;;;;6.80;77.43;100878.44;5114117;28;20054;-78
2022/05/19 02:32:35;;;;;;;13.13;4.90;;;;;;;6.80;77.90;100873.06;5115263;28;20051;-77
2022/05/19 02:35:03;;;;;;;12.23;4.90;;;;;;;6.91;76.80;100879.97;5113736;27;20055;-76
2022/05/19 02:37:30;;;;;;;10.73;4.82;;;;;;;6.75;77.43;100866.91;5114032;27;20408;-77
2022/05/19 02:39:58;;;;;;;14.65;4.95;;;;;;;6.70;77.93;100865.25;5114072;28;20480;-77
2022/05/19 02:42:26;;;;;;;14.63;4.97;;;;;;;6.85;77.27;100870.28;5113942;27;20046;-76
2022/05/19 02:44:54;;;;;;;14.60;5.07;;;;;;;6.82;76.54;100870.34;5113816;27;20054;-77
2022/05/19 02:47:23;;;;;;;13.60;4.78;;;;;;;6.71;77.26;100875.06;5113905;27;20096;-77
2022/05/19 02:49:51;;;;;;;11.90;4.82;;;;;;;6.76;76.73;100871.38;5105142;28;20055;-77
2022/05/19 02:52:18;;;;;;;15.52;5.57;;;;;;;6.79;76.77;100868.59;5113884;27;20122;-77
2022/05/19 02:54:46;;;;;;;13.30;4.90;;;;;;;6.82;76.70;100876.59;5113754;27;20048;-77
2022/05/19 02:57:14;;;;;;;11.00;4.63;;;;;;;6.88;76.48;100869.31;5113687;27;20043;-76
2022/05/19 02:59:42;;;;;;;10.73;4.60;;;;;;;6.81;76.66;100874.81;5113866;27;20119;-78
2022/05/19 03:02:10;;;;;;;11.82;4.78;;;;;;;6.92;76.42;100862.94;5113821;27;20043;-78
2022/05/19 03:04:39;;;;;;;10.95;5.20;;;;;;;6.92;76.16;100861.13;5113188;28;20050;-78
2022/05/19 03:07:07;;;;;;;13.43;4.80;;;;;;;6.98;76.11;100859.22;5113741;27;20044;-78
2022/05/19 03:09:35;;;;;;;13.60;4.68;;;;;;;6.82;76.45;100871.22;5113621;28;20050;-78
2022/05/19 03:12:03;;;;;;;11.88;5.07;;;;;;;6.76;77.11;100865.13;5113503;27;20052;-77
2022/05/19 03:14:31;;;;;;;12.35;5.45;;;;;;;6.70;76.82;100866.16;5112090;28;20039;-76
2022/05/19 03:16:59;;;;;;;11.95;4.72;;;;;;;6.72;76.95;100863.41;5113122;27;20115;-76
2022/05/19 03:19:26;;;;;;;11.48;4.85;;;;;;;6.79;77.31;100857.88;5112820;28;20043;-77
2022/05/19 03:21:55;;;;;;;11.02;4.50;;;;;;;6.82;77.24;100863.16;5113426;27;20047;-76
2022/05/19 03:24:23;;;;;;;11.02;4.65;;;;;;;6.78;77.64;100869.53;5113474;27;20480;-77
2022/05/19 03:26:50;;;;;;;15.35;4.85;;;;;;;6.86;77.45;100863.97;5113481;27;20040;-77
2022/05/19 03:29:18;;;;;;;12.50;5.55;;;;;;;7.01;76.55;100869.88;5113407;27;20051;-76
2022/05/19 03:31:45;;;;;;;12.48;4.70;;;;;;;7.05;75.64;100867.09;5113452;28;20114;-77
2022/05/19 03:34:16;;;;;;;12.48;5.03;;;;;;;7.09;76.34;100865.19;5113023;27;20047;-76
2022/05/19 03:36:44;;;;;;;15.88;5.20;;;;;;;7.11;75.04;100860.66;5114288;27;20043;-77
2022/05/19 03:39:13;;;;;;;12.80;4.90;;;;;;;7.21;75.09;100870.28;5113481;27;20130;-77
2022/05/19 03:41:41;;;;;;;11.38;4.78;;;;;;;7.20;75.60;100862.22;5113123;27;20504;-76
2022/05/19 03:44:09;;;;;;;12.10;5.10;;;;;;;7.35;74.95;100858.25;5113129;27;20044;-76
2022/05/19 03:46:36;;;;;;;13.15;4.90;;;;;;;7.32;75.88;100863.72;5112971;27;20044;-77
2022/05/19 03:49:04;;;;;;;11.00;5.10;;;;;;;7.39;76.55;100873.38;5112944;27;20108;-77
2022/05/19 03:51:33;;;;;;;13.82;5.20;;;;;;;7.49;75.70;100872.19;5113218;28;20428;-77
2022/05/19 03:54:01;;;;;;;11.55;5.00;;;;;;;7.44;76.01;100875.97;5113139;28;20074;-76
2022/05/19 03:56:30;;;;;;;14.77;4.68;;;;;;;7.52;76.23;100882.88;5113158;28;20502;-76
2022/05/19 03:58:57;;;;;;;13.70;5.07;;;;;;;7.68;76.19;100882.47;5113180;28;20066;-77
2022/05/19 04:01:25;;;;;;;12.05;4.90;;;;;;;7.87;74.28;100876.56;5112815;28;20043;-77
2022/05/19 04:03:52;;;;;;;11.10;4.93;;;;;;;8.21;72.77;100879.16;5113298;28;20087;-77
2022/05/19 04:06:20;;;;;;;14.57;5.03;;;;;;;8.24;72.65;100881.75;5116077;28;20039;-76
2022/05/19 04:08:48;;;;;;;13.25;4.88;;;;;;;8.26;72.91;100881.69;5116449;28;20070;-75
2022/05/19 04:11:16;;;;;;;19.52;6.22;;;;;;;8.28;73.34;100885.22;5116730;27;20039;-75
2022/05/19 04:13:45;;;;;;;14.07;6.20;;;;;;;8.51;72.89;100876.47;5116713;27;20054;-77
2022/05/19 04:16:12;;;;;;;12.35;5.82;;;;;;;8.54;72.01;100878.19;5116199;27;20047;-77
2022/05/19 04:18:40;;;;;;;11.93;4.53;;;;;;;8.73;71.12;100877.59;5116387;27;20069;-77
2022/05/19 04:21:07;;;;;;;12.05;4.85;;;;;;;8.59;71.98;100868.16;5116059;27;20066;-77
2022/05/19 04:23:35;;;;;;;12.13;4.88;;;;;;;8.67;72.70;100868.78;5116548;27;20047;-77
2022/05/19 04:26:02;;;;;;;12.45;4.90;;;;;;;8.97;70.98;100868.72;5116400;27;20047;-76
2022/05/19 04:28:30;;;;;;;11.90;4.63;;;;;;;8.89;72.25;100867.22;5116217;28;20047;-77
2022/05/19 04:31:00;;;;;;;11.60;4.47;;;;;;;9.09;72.42;100870.13;5115744;28;20055;-77
2022/05/19 04:33:28;;;;;;;14.25;5.10;;;;;;;9.16;73.27;100876.19;5116556;27;20408;-78
2022/05/19 04:35:56;;;;;;;34.97;5.90;;;;;;;9.38;72.37;100878.16;5116256;27;20048;-78
2022/05/19 04:38:23;;;;;;;12.57;5.20;;;;;;;9.50;71.88;100869.63;5116230;27;20665;-77
2022/05/19 04:40:51;;;;;;;25.77;7.53;;;;;;;9.64;70.75;100876.34;5116121;27;20046;-77
2022/05/19 04:43:22;;;;;;;16.00;6.10;;;;;;;9.74;68.97;100875.06;5116037;27;20043;-76
2022/05/19 04:45:51;;;;;;;12.00;5.18;;;;;;;9.79;68.49;100883.88;5117173;27;20047;-76
2022/05/19 04:48:20;;;;;;;10.90;4.88;;;;;;;9.96;66.75;100880.56;5116118;28;20058;-77
2022/05/19 04:50:50;;;;;;;13.02;5.00;;;;;;;9.91;66.45;100878.97;5115691;27;20067;-77
2022/05/19 04:53:18;;;;;;;13.48;5.30;;;;;;;9.97;66.75;100884.13;5116891;27;20396;-76
2022/05/19 04:55:46;;;;;;;13.43;5.45;;;;;;;10.07;66.44;100880.16;5115514;28;20400;-77
2022/05/19 04:58:13;;;;;;;12.63;5.00;;;;;;;10.07;67.60;100885.56;5115912;27;20056;-76
2022/05/19 05:00:41;;;;;;;13.50;5.93;;;;;;;10.31;66.96;100885.56;5115450;27;20039;-76
2022/05/19 05:03:09;;;;;;;11.82;5.43;;;;;;;10.35;66.78;100880.91;5115783;27;20629;-77
2022/05/19 05:05:37;;;;;;;12.43;5.22;;;;;;;10.41;67.24;100878.00;5115631;27;20043;-75
2022/05/19 05:08:05;;;;;;;14.63;5.68;;;;;;;10.43;67.87;100878.84;5115227;27;20048;-76
2022/05/19 05:10:33;;;;;;;11.73;5.35;;;;;;;10.48;67.78;100887.63;5115284;27;20051;-75
2022/05/19 05:13:05;;;;;;;26.45;13.52;;;;;;;10.55;68.50;100875.63;5115642;27;20050;-76
2022/05/19 05:15:33;;;;;;;14.60;6.60;;;;;;;10.77;67.41;100874.78;5114873;27;20121;-76
2022/05/19 05:18:01;;;;;;;13.13;5.60;;;;;;;10.89;66.52;100884.22;5115473;27;20055;-77
2022/05/19 05:20:28;;;;;;;10.50;5.40;;;;;;;10.90;67.27;100882.38;5126301;27;20044;-76
2022/05/19 05:22:57;;;;;;;11.98;5.50;;;;;;;10.99;65.77;100877.47;5115254;27;20458;-76
2022/05/19 05:25:29;;;;;;;12.48;5.82;;;;;;;11.15;65.57;100884.94;5115117;27;20044;-77
2022/05/19 05:27:57;;;;;;;12.93;5.53;;;;;;;11.16;65.18;100882.19;5111948;27;20044;-75
2022/05/19 05:30:26;;;;;;;13.90;5.38;;;;;;;11.25;65.21;100878.22;5111511;27;20043;-78
2022/05/19 05:32:54;;;;;;;13.85;5.45;;;;;;;11.36;64.62;100871.47;5111462;27;20116;-76
2022/05/19 05:35:21;;;;;;;12.63;6.03;;;;;;;11.53;64.08;100868.88;5111278;28;20496;-77
2022/05/19 05:37:49;;;;;;;13.75;6.85;;;;;;;11.59;63.80;100868.59;5111639;27;20047;-78
2022/05/19 05:40:18;;;;;;;11.80;5.70;;;;;;;11.64;63.20;100870.25;5111582;27;20051;-76
2022/05/19 05:42:46;;;;;;;24.13;6.32;;;;;;;11.72;63.31;100868.94;5111071;27;20039;-76
2022/05/19 05:45:13;;;;;;;14.68;5.68;;;;;;;11.78;62.83;100873.22;5110907;28;20043;-76
2022/05/19 05:47:41;;;;;;;12.57;5.07;;;;;;;11.84;61.94;100878.34;5111358;27;20105;-76
2022/05/19 05:50:09;;;;;;;15.38;5.28;;;;;;;11.85;62.73;100885.50;5111295;27;20055;-76
2022/05/19 05:52:37;;;;;;;12.82;5.50;;;;;;;11.89;62.24;100891.69;5111012;27;20040;-76
2022/05/19 05:55:06;;;;;;;11.65;5.72;;;;;;;11.94;61.49;100900.47;5110821;28;20043;-77
2022/05/19 05:57:35;;;;;;;11.15;5.50;;;;;;;12.05;61.24;100893.72;5110750;27;20443;-76
2022/05/19 06:00:05;;;;;;;11.85;6.35;;;;;;;12.06;61.17;100885.53;5111130;27;20493;-76
2022/05/19 06:02:32;;;;;;;12.98;5.95;;;;;;;12.32;61.24;100883.41;5110899;28;20495;-77
2022/05/19 06:05:00;;;;;;;12.65;5.90;;;;;;;12.31;61.55;100884.38;5110935;27;20044;-76
2022/05/19 06:07:29;;;;;;;14.40;5.53;;;;;;;12.31;62.29;100887.97;5110814;27;20404;-77
2022/05/19 06:09:56;;;;;;;13.80;5.72;;;;;;;12.38;61.90;100884.97;5110642;27;20043;-76
2022/05/19 06:12:25;;;;;;;13.77;5.13;;;;;;;12.50;61.14;100875.38;5110602;28;20043;-76
2022/05/19 06:14:56;;;;;;;22.40;5.70;;;;;;;12.59;61.40;100870.38;5110952;27;20050;-77
2022/05/19 06:17:23;;;;;;;12.27;5.30;;;;;;;12.72;59.84;100870.66;5111368;27;20090;-77
2022/05/19 06:19:52;;;;;;;18.70;5.53;;;;;;;12.68;58.54;100873.63;5105255;28;20067;-77
2022/05/19 06:22:21;;;;;;;11.48;5.30;;;;;;;12.79;58.24;100864.94;5110634;27;20043;-77
2022/05/19 06:24:49;;;;;;;11.60;5.28;;;;;;;12.86;58.36;100867.28;5110586;27;20049;-76
2022/05/19 06:27:17;;;;;;;12.50;5.40;;;;;;;12.94;57.51;100868.72;5109901;27;20076;-76
2022/05/19 06:29:44;;;;;;;11.50;5.03;;;;;;;13.04;56.42;100870.91;5110644;27;20055;-77
2022/05/19 06:32:13;;;;;;;12.85;5.13;;;;;;;13.14;57.03;100871.31;5110197;27;20051;-78
2022/05/19 06:34:40;;;;;;;12.13;5.43;;;;;;;13.22;55.72;100870.91;5110379;27;20047;-76
2022/05/19 06:37:08;;;;;;;13.75;5.25;;;;;;;13.26;55.28;100867.09;5110458;28;20065;-78
2022/05/19 06:39:36;;;;;;;13.60;5.07;;;;;;;13.35;54.33;100867.59;5110336;27;20105;-76
2022/05/19 06:42:04;;;;;;;17.67;5.75;;;;;;;13.36;53.59;100869.34;5109942;28;20051;-77
2022/05/19 06:44:34;;;;;;;11.48;4.75;;;;;;;13.45;52.54;100868.88;5109932;27;20047;-77
2022/05/19 06:47:02;;;;;;;10.48;3.90;;;;;;;13.49;50.63;100873.19;5112362;27;20044;-77
2022/05/19 06:49:31;;;;;;;10.68;4.40;;;;;;;13.53;50.34;100863.94;5110156;27;20501;-76
2022/05/19 06:51:59;;;;;;;11.52;4.10;;;;;;;13.62;50.84;100859.88;5109939;28;20051;-77
2022/05/19 06:54:27;;;;;;;10.48;4.07;;;;;;;13.69;50.39;100861.28;5110313;27;20246;-78
2022/05/19 06:56:54;;;;;;;8.93;3.72;;;;;;;13.74;49.80;100869.19;5109694;27;20043;-76
2022/05/19 06:59:22;;;;;;;10.90;4.22;;;;;;;13.74;49.78;100866.47;5109971;27;20423;-77
2022/05/19 07:01:49;;;;;;;13.27;4.03;;;;;;;13.90;50.10;100858.41;5109857;28;20051;-77
2022/05/19 07:04:17;;;;;;;9.85;3.95;;;;;;;13.98;49.91;100857.97;5110306;27;20051;-77
2022/05/19 07:06:46;;;;;;;8.77;3.67;;;;;;;14.04;49.50;100860.31;5110045;27;20051;-78
2022/05/19 07:09:14;;;;;;;10.68;3.75;;;;;;;14.08;48.23;100853.81;5109729;27;20051;-75
2022/05/19 07:11:41;;;;;;;9.48;3.55;;;;;;;14.23;47.77;100864.75;5109921;27;20070;-79
2022/05/19 07:14:09;;;;;;;8.75;3.15;;;;;;;14.31;47.93;100868.81;5110105;27;20409;-80
2022/05/19 07:16:37;;;;;;;8.50;3.22;;;;;;;14.37;47.79;100870.28;5110072;27;20047;-78
2022/05/19 07:21:51;;;;;;;7.78;3.08;;;;;;;14.51;45.91;100865.94;5131256;27;20044;-79
2022/05/19 07:24:21;;;;;;;11.20;3.55;;;;;;;14.60;46.47;100862.69;5109458;28;20047;-78
2022/05/19 07:26:50;;;;;;;9.90;3.80;;;;;;;14.60;44.47;100863.56;5110463;28;20055;-76
2022/05/19 07:29:19;;;;;;;9.60;3.38;;;;;;;14.69;44.68;100864.03;5109561;27;20051;-79
2022/05/19 07:31:47;;;;;;;11.02;3.45;;;;;;;14.82;44.45;100861.47;5109474;28;20040;-79
2022/05/19 07:34:17;;;;;;;8.98;3.50;;;;;;;14.93;43.42;100864.47;5109887;27;20071;-79
2022/05/19 07:36:45;;;;;;;9.60;3.40;;;;;;;14.97;43.52;100852.44;5109826;27;20047;-79
2022/05/19 07:39:15;;;;;;;10.73;3.33;;;;;;;14.90;44.12;100853.78;5109468;27;20439;-79
2022/05/19 07:41:42;;;;;;;11.27;3.17;;;;;;;14.92;43.76;100840.97;5113598;27;20047;-80
2022/05/19 07:44:10;;;;;;;10.85;3.28;;;;;;;15.01;44.34;100850.41;5113371;27;20096;-75
2022/05/19 07:46:38;;;;;;;14.18;5.50;;;;;;;15.13;44.15;100854.25;5113680;27;20135;-76
2022/05/19 07:49:06;;;;;;;14.60;3.47;;;;;;;15.12;43.67;100845.22;5113319;27;20100;-79
2022/05/19 07:51:36;;;;;;;12.38;3.35;;;;;;;15.13;42.86;100843.34;5113627;27;20035;-79
2022/05/19 07:54:04;;;;;;;12.10;3.55;;;;;;;15.17;42.76;100844.91;5112652;27;20137;-79
2022/05/19 07:56:33;;;;;;;7.55;2.95;;;;;;;15.30;43.72;100840.53;5113184;27;20517;-79
2022/05/19 07:59:01;;;;;;;5.75;2.75;;;;;;;15.37;42.01;100841.00;5113611;27;20382;-80
2022/05/19 08:01:29;;;;;;;5.63;2.50;;;;;;;15.43;41.15;100834.31;5113270;27;20047;-79
2022/05/19 08:03:57;;;;;;;13.57;2.88;;;;;;;15.46;40.34;100840.44;5113357;27;20047;-78
2022/05/19 08:06:25;;;;;;;7.35;3.35;;;;;;;15.43;39.11;100831.59;5113588;27;20043;-79
2022/05/19 08:08:52;;;;;;;8.38;3.97;;;;;;;15.52;39.54;100836.47;5112464;27;20051;-79
2022/05/19 08:11:19;;;;;;;10.02;3.83;;;;;;;15.52;39.75;100831.03;5113244;27;20397;-77
2022/05/19 08:16:39;;;;;;;9.52;4.32;;;;;;;15.67;38.93;100825.59;5070556;28;20103;-78
2022/05/19 08:19:07;;;;;;;11.45;5.82;;;;;;;15.72;41.15;100834.38;5069514;28;20068;-79
2022/05/19 08:21:34;;;;;;;13.63;6.10;;;;;;;15.84;40.80;100824.53;5069871;28;20110;-78
2022/05/19 08:24:02;;;;;;;13.50;5.80;;;;;;;15.83;40.71;100823.69;5069531;28;20060;-77
2022/05/19 08:26:30;;;;;;;12.60;5.25;;;;;;;16.04;41.19;100826.03;5069619;28;20932;-76
2022/05/19 08:28:58;;;;;;;9.13;4.25;;;;;;;16.00;39.68;100821.75;5069417;28;20056;-77
2022/05/19 08:31:30;;;;;;;10.50;4.57;;;;;;;16.03;39.79;100821.56;5069257;28;20048;-78
2022/05/19 08:33:58;;;;;;;8.20;3.30;;;;;;;16.08;38.96;100816.69;5070303;28;20079;-77
2022/05/19 08:36:27;;;;;;;10.10;3.55;;;;;;;16.13;39.15;100822.75;5069111;28;20133;-77
2022/05/19 08:38:54;;;;;;;9.80;3.45;;;;;;;16.17;39.02;100817.94;5069707;28;20714;-79
2022/05/19 08:41:26;;;;;;;8.63;3.25;;;;;;;16.16;38.96;100814.38;5069268;28;20060;-77
2022/05/19 08:43:57;;;;;;;7.95;3.00;;;;;;;16.24;37.55;100818.44;5069814;28;20059;-78
2022/05/19 08:46:30;;;;;;;6.38;2.80;;;;;;;16.30;37.48;100818.88;5070805;28;20065;-78
2022/05/19 08:49:01;;;;;;;6.30;2.88;;;;;;;16.33;37.22;100818.72;5070653;28;20080;-77
2022/05/19 08:51:32;;;;;;;5.85;2.50;;;;;;;16.37;37.54;100819.38;5068204;28;20067;-79
2022/05/19 08:54:04;;;;;;;7.03;2.67;;;;;;;16.44;37.53;100818.00;5103979;28;20066;-78
2022/05/19 08:56:35;;;;;;;8.27;2.92;;;;;;;16.42;36.81;100810.91;5112703;27;20048;-78
2022/05/19 08:59:25;;;;;;;7.22;2.90;;;;;;;16.47;37.10;100812.34;5112176;28;20054;-79
2022/05/19 09:01:57;;;;;;;8.85;3.00;;;;;;;16.48;35.86;100810.50;5112158;28;20051;-79
2022/05/19 09:04:34;;;;;;;7.78;3.33;;;;;;;16.47;35.58;100814.22;5113932;27;20044;-80
2022/05/19 09:10:04;;;;;;;8.40;3.10;;;;;;;16.66;35.66;100800.22;5113183;28;20040;-79
2022/05/19 09:12:36;;;;;;;9.63;3.50;;;;;;;16.74;35.44;100814.22;5113152;27;20106;-77
2022/05/19 09:15:04;;;;;;;6.93;3.60;;;;;;;16.89;35.31;100801.41;5113541;27;20495;-77
2022/05/19 09:17:37;;;;;;;8.75;3.83;;;;;;;17.03;35.51;100795.03;5111995;27;20043;-77
2022/05/19 09:20:10;;;;;;;12.60;4.13;;;;;;;16.97;35.69;100798.16;5129286;27;20504;-77
2022/05/19 09:22:38;;;;;;;10.30;4.10;;;;;;;17.21;36.07;100787.44;5135338;27;20046;-78
2022/05/19 09:25:09;;;;;;;12.05;4.28;;;;;;;17.25;35.68;100798.16;5117566;27;20043;-78
2022/05/19 09:27:38;;;;;;;9.82;4.50;;;;;;;17.26;35.92;100792.56;5118453;27;20048;-76
2022/05/19 09:30:14;;;;;;;11.10;4.40;;;;;;;17.44;35.92;100795.00;5115984;27;20040;-77
2022/05/19 09:32:52;;;;;;;7.75;3.83;;;;;;;17.45;34.83;100783.09;5116235;27;20044;-77
2022/05/19 09:35:22;;;;;;;10.63;4.20;;;;;;;17.54;34.84;100785.16;5114399;28;20101;-75
2022/05/19 09:37:51;;;;;;;9.48;3.83;;;;;;;17.75;34.79;100784.63;5116587;28;20047;-76
2022/05/19 09:40:22;;;;;;;12.25;4.35;;;;;;;17.60;35.49;100789.34;5115753;28;20042;-76
2022/05/19 09:42:54;;;;;;;9.05;4.00;;;;;;;17.82;35.26;100783.22;5113767;27;20511;-75
2022/05/19 09:45:22;;;;;;;7.40;3.85;;;;;;;18.06;35.16;100782.41;5114343;28;20050;-76
2022/05/19 09:47:53;;;;;;;8.80;3.85;;;;;;;17.93;35.36;100772.38;5113453;28;20052;-76
2022/05/19 09:50:25;;;;;;;9.10;3.80;;;;;;;18.11;35.61;100769.28;5114347;27;20089;-78
2022/05/19 09:53:00;;;;;;;11.68;3.78;;;;;;;18.13;35.19;100767.31;5113127;28;20050;-77
2022/05/19 09:55:28;;;;;;;8.57;3.65;;;;;;;18.27;35.67;100769.03;5113317;27;20104;-76
2022/05/19 09:57:58;;;;;;;7.47;3.75;;;;;;;18.09;34.89;100754.84;5111399;28;20039;-76
2022/05/19 10:00:33;;;;;;;7.03;3.55;;;;;;;18.39;35.65;100757.19;5112870;28;20047;-76
2022/05/19 10:03:03;;;;;;;10.65;3.55;;;;;;;18.27;34.76;100760.81;5113496;28;20047;-76
2022/05/19 10:05:37;;;;;;;7.82;3.33;;;;;;;18.18;34.79;100758.78;5112549;27;20396;-74
2022/05/19 10:08:07;;;;;;;9.30;3.08;;;;;;;18.33;34.48;100749.44;5113364;27;20048;-76
2022/05/19 10:10:44;;;;;;;6.28;3.10;;;;;;;18.45;34.74;100750.38;5109820;28;20047;-77
2022/05/19 10:13:16;;;;;;;8.95;2.45;;;;;;;18.37;33.64;100753.72;5114234;27;20040;-77
2022/05/19 10:15:54;;;;;;;6.05;2.72;;;;;;;18.35;34.01;100744.72;5116201;27;20405;-77
2022/05/19 10:18:38;;;;;;;5.25;2.33;;;;;;;18.42;33.62;100736.94;5111974;27;20404;-77
2022/05/19 10:21:15;;;;;;;4.43;2.20;;;;;;;18.56;32.64;100744.09;5113424;28;20054;-76
2022/05/19 10:24:03;;;;;;;5.30;2.13;;;;;;;18.86;32.87;100740.00;5112787;28;20441;-77
2022/05/19 10:26:39;;;;;;;4.75;2.35;;;;;;;18.80;32.53;100729.53;5116187;28;20461;-78
2022/05/19 10:32:27;;;;;;;5.10;2.42;;;;;;;18.81;30.56;100732.16;5114531;28;20057;-78
2022/05/19 10:35:01;;;;;;;4.95;2.40;;;;;;;18.83;31.23;100732.91;5114133;28;20040;-76
2022/05/19 10:37:35;;;;;;;8.63;2.58;;;;;;;19.02;30.77;100736.09;5114309;27;20047;-78
2022/05/19 10:40:29;;;;;;;4.13;2.20;;;;;;;18.92;30.59;100730.44;5114834;28;20492;-78
2022/05/19 10:43:04;;;;;;;4.80;2.08;;;;;;;18.83;30.54;100726.56;5112055;28;20460;-78
2022/05/19 10:45:34;;;;;;;6.20;2.15;;;;;;;18.87;30.36;100728.06;5113973;28;20050;-78
2022/05/19 10:48:26;;;;;;;8.43;2.40;;;;;;;18.97;31.16;100720.03;5113519;27;20043;-78
2022/05/19 10:50:59;;;;;;;25.95;2.95;;;;;;;19.24;30.03;100706.06;5113842;27;20051;-77
2022/05/19 10:53:42;;;;;;;3.42;1.83;;;;;;;19.13;30.43;100703.28;5114374;27;20040;-76
2022/05/19 10:56:20;;;;;;;4.47;1.85;;;;;;;18.97;28.23;100700.88;5093880;28;20048;-77
2022/05/19 10:59:00;;;;;;;4.45;1.88;;;;;;;19.01;28.85;100699.66;5092354;28;20058;-79
2022/05/19 11:01:36;;;;;;;7.18;2.30;;;;;;;19.01;29.50;100694.19;5093592;28;20075;-79
2022/05/19 11:04:19;;;;;;;6.70;2.03;;;;;;;19.01;28.96;100694.19;5093992;28;20044;-78
2022/05/19 11:07:11;;;;;;;8.77;2.55;;;;;;;18.99;28.21;100682.50;5104168;28;20043;-79
2022/05/19 11:09:44;;;;;;;3.83;1.85;;;;;;;19.09;29.08;100683.50;5108710;28;20055;-79
2022/05/19 11:12:25;;;;;;;5.70;2.42;;;;;;;19.19;29.67;100688.25;5110331;27;20043;-79
2022/05/19 11:15:06;;;;;;;4.05;2.00;;;;;;;19.26;29.55;100678.53;5112739;27;20536;-78
2022/05/19 11:17:42;;;;;;;7.28;2.40;;;;;;;19.28;28.80;100692.97;5114441;27;20101;-79
2022/05/19 11:20:11;;;;;;;;;;;;;;;19.39;28.54;100672.94;5114768;27;20054;-80
2022/05/19 11:22:41;;;;;;;5.68;2.53;;;;;;;19.47;29.87;100680.56;5113847;27;19927;-80
2022/05/19 11:28:02;;;;;;;5.40;2.30;;;;;;;19.51;27.99;100669.22;5114846;28;20044;-79
2022/05/19 11:30:34;;;;;;;4.22;2.20;;;;;;;19.57;27.85;100659.63;5114988;27;20051;-79
2022/05/19 11:33:04;;;;;;;8.50;2.72;;;;;;;19.65;28.28;100661.75;5115671;27;20480;-78
2022/05/19 11:35:35;;;;;;;6.22;2.78;;;;;;;19.65;29.84;100664.50;5113639;27;20440;-79
2022/05/19 11:38:09;;;;;;;5.85;2.85;;;;;;;19.75;30.06;100657.25;5114829;27;20048;-78
2022/05/19 11:40:40;;;;;;;4.72;2.40;;;;;;;19.89;28.97;100653.38;5114941;27;20039;-79
2022/05/19 11:43:12;;;;;;;14.15;2.80;;;;;;;19.85;28.47;100646.41;5114149;27;20393;-78
2022/05/19 11:45:42;;;;;;;5.18;2.40;;;;;;;19.97;29.58;100645.41;5116628;28;20036;-78
2022/05/19 11:57:14;;;;;;;4.72;2.00;;;;;;;19.94;27.67;100637.44;5069719;28;20194;-78
2022/05/19 11:59:47;;;;;;;4.68;2.10;;;;;;;19.86;26.67;100619.84;5068934;28;20071;-77
2022/05/19 12:02:17;;;;;;;6.32;2.20;;;;;;;20.00;28.16;100624.22;5069702;28;20135;-79